createdAt,value
2023-01-25T00:01:40.656Z,7.60
2023-01-25T00:04:29.741Z,7.30
2023-01-25T00:07:18.217Z,7.20
2023-01-25T00:10:08.981Z,7.30
2023-01-25T00:12:58.048Z,7.40
2023-01-25T00:15:46.438Z,7.60
2023-01-25T00:18:35.004Z,7.50
2023-01-25T00:21:25.109Z,7.70
2023-01-25T00:24:14.594Z,7.70
2023-01-25T00:27:05.047Z,7.80
2023-01-25T00:29:53.533Z,7.80
2023-01-25T00:32:58.914Z,7.80
2023-01-25T00:35:47.364Z,7.90
2023-01-25T00:38:36.443Z,8.00
2023-01-25T00:41:24.959Z,7.90
2023-01-25T00:44:14.817Z,8.00
2023-01-25T00:47:05.069Z,7.90
2023-01-25T00:49:53.684Z,7.90
2023-01-25T00:52:42.162Z,7.70
2023-01-25T00:55:30.634Z,7.70
2023-01-25T00:58:19.117Z,7.70
2023-01-25T01:01:09.351Z,7.80
2023-01-25T01:03:57.937Z,7.80
2023-01-25T01:06:46.659Z,7.90
2023-01-25T01:09:35.082Z,8.00
2023-01-25T01:12:23.495Z,8.00
2023-01-25T01:15:12.270Z,8.10
2023-01-25T01:18:02.204Z,8.20
2023-01-25T01:20:51.381Z,8.10
2023-01-25T01:23:40.604Z,8.10
2023-01-25T01:26:29.175Z,8.10
2023-01-25T01:29:17.686Z,8.10
2023-01-25T01:32:06.736Z,8.20
2023-01-25T01:34:56.684Z,8.20
2023-01-25T01:37:45.142Z,8.10
2023-01-25T01:40:33.759Z,8.20
2023-01-25T01:43:24.218Z,8.00
2023-01-25T01:46:17.262Z,7.90
2023-01-25T01:49:11.574Z,7.90
2023-01-25T01:52:04.678Z,7.90
2023-01-25T01:54:58.244Z,8.00
2023-01-25T01:57:51.349Z,8.00
2023-01-25T02:00:42.259Z,7.70
2023-01-25T02:03:32.398Z,7.40
2023-01-25T02:06:28.872Z,7.20
2023-01-25T02:09:23.655Z,7.10
2023-01-25T02:12:13.988Z,7.20
2023-01-25T02:15:02.499Z,7.40
2023-01-25T02:17:52.505Z,7.50
2023-01-25T02:20:43.270Z,7.70
2023-01-25T02:23:38.557Z,7.70
2023-01-25T02:26:28.534Z,7.80
2023-01-25T02:29:19.551Z,7.90
2023-01-25T02:32:08.270Z,7.80
2023-01-25T02:34:56.727Z,7.90
2023-01-25T02:37:45.487Z,8.00
2023-01-25T02:40:41.339Z,8.10
2023-01-25T02:43:33.713Z,8.10
2023-01-25T02:46:27.690Z,8.20
2023-01-25T02:49:17.203Z,8.20
2023-01-25T02:52:07.033Z,8.30
2023-01-25T02:54:55.533Z,8.30
2023-01-25T02:57:43.914Z,8.30
2023-01-25T03:00:33.908Z,8.30
2023-01-25T03:03:22.402Z,8.30
2023-01-25T03:06:11.196Z,8.10
2023-01-25T03:08:59.859Z,8.10
2023-01-25T03:11:48.251Z,7.90
2023-01-25T03:14:36.735Z,8.00
2023-01-25T03:17:26.724Z,8.10
2023-01-25T03:20:15.223Z,8.10
2023-01-25T03:23:03.644Z,8.10
2023-01-25T03:25:52.125Z,8.20
2023-01-25T03:28:41.744Z,8.30
2023-01-25T03:31:30.317Z,8.30
2023-01-25T03:34:20.445Z,8.10
2023-01-25T03:37:09.011Z,8.00
2023-01-25T03:39:57.599Z,7.80
2023-01-25T03:42:46.101Z,7.60
2023-01-25T03:45:34.582Z,7.60
2023-01-25T03:48:23.933Z,7.60
2023-01-25T03:51:13.842Z,7.70
2023-01-25T03:54:02.373Z,7.80
2023-01-25T03:56:50.918Z,8.00
2023-01-25T03:59:39.483Z,8.00
2023-01-25T04:02:28.115Z,8.10
2023-01-25T04:05:16.777Z,8.20
2023-01-25T04:08:06.647Z,8.30
2023-01-25T04:10:55.737Z,8.40
2023-01-25T04:13:44.255Z,8.40
2023-01-25T04:16:32.948Z,8.40
2023-01-25T04:19:21.378Z,8.40
2023-01-25T04:22:10.095Z,8.50
2023-01-25T04:24:59.912Z,8.50
2023-01-25T04:27:48.523Z,8.50
2023-01-25T04:30:36.998Z,8.50
2023-01-25T04:33:26.187Z,8.40
2023-01-25T04:36:14.584Z,8.50
2023-01-25T04:39:03.004Z,8.50
2023-01-25T04:41:52.883Z,8.40
2023-01-25T04:44:41.304Z,8.50
2023-01-25T04:47:29.844Z,8.50
2023-01-25T04:50:18.677Z,8.50
2023-01-25T04:53:07.996Z,8.50
2023-01-25T04:55:56.608Z,8.50
2023-01-25T04:58:46.430Z,8.50
2023-01-25T05:01:34.893Z,8.50
2023-01-25T05:04:23.438Z,8.40
2023-01-25T05:07:11.991Z,8.40
2023-01-25T05:10:00.606Z,8.40
2023-01-25T05:12:49.097Z,8.50
2023-01-25T05:15:39.000Z,8.50
2023-01-25T05:18:35.826Z,8.40
2023-01-25T05:21:48.811Z,8.40
2023-01-25T05:24:37.305Z,8.40
2023-01-25T05:27:24.841Z,8.40
2023-01-25T05:30:13.720Z,8.40
2023-01-25T05:33:03.698Z,8.40
2023-01-25T05:35:52.137Z,8.40
2023-01-25T05:38:40.652Z,8.20
2023-01-25T05:41:29.149Z,8.20
2023-01-25T05:44:17.791Z,8.20
2023-01-25T05:47:06.323Z,8.20
2023-01-25T05:49:56.124Z,8.20
2023-01-25T05:52:46.698Z,8.20
2023-01-25T05:55:37.002Z,8.20
2023-01-25T05:58:25.429Z,8.20
2023-01-25T06:01:14.006Z,8.20
2023-01-25T06:04:02.494Z,8.20
2023-01-25T06:06:52.359Z,8.20
2023-01-25T06:09:40.765Z,8.20
2023-01-25T06:12:29.581Z,8.20
2023-01-25T06:15:18.911Z,8.10
2023-01-25T06:18:07.683Z,8.10
2023-01-25T06:20:58.625Z,8.10
2023-01-25T06:23:48.617Z,8.10
2023-01-25T06:26:37.223Z,8.10
2023-01-25T06:29:25.707Z,8.10
2023-01-25T06:32:14.294Z,8.30
2023-01-25T06:35:02.995Z,8.10
2023-01-25T06:37:51.446Z,8.10
2023-01-25T06:40:41.481Z,8.10
2023-01-25T06:43:30.132Z,8.10
2023-01-25T06:46:19.130Z,8.10
2023-01-25T06:49:07.641Z,8.10
2023-01-25T06:51:56.373Z,8.10
2023-01-25T06:54:44.869Z,8.10
2023-01-25T06:57:34.693Z,8.00
2023-01-25T07:00:23.397Z,8.10
2023-01-25T07:03:11.890Z,8.00
2023-01-25T07:06:00.844Z,8.10
2023-01-25T07:08:49.737Z,8.10
2023-01-25T07:11:38.618Z,8.10
2023-01-25T07:14:28.701Z,8.10
2023-01-25T07:17:17.353Z,8.10
2023-01-25T07:20:06.579Z,8.10
2023-01-25T07:22:55.179Z,8.10
2023-01-25T07:25:47.248Z,8.10
2023-01-25T07:28:36.300Z,8.10
2023-01-25T07:31:26.543Z,8.10
2023-01-25T07:34:15.337Z,8.10
2023-01-25T07:37:03.802Z,8.10
2023-01-25T07:39:52.330Z,8.20
2023-01-25T07:42:40.839Z,8.30
2023-01-25T07:45:30.518Z,8.30
2023-01-25T07:48:21.541Z,8.20
2023-01-25T07:51:22.832Z,8.20
2023-01-25T07:54:12.645Z,8.20
2023-01-25T07:57:01.227Z,8.20
2023-01-25T07:59:49.939Z,8.20
2023-01-25T08:02:38.642Z,8.30
2023-01-25T08:05:28.583Z,8.30
2023-01-25T08:08:17.108Z,8.30
2023-01-25T08:11:11.646Z,8.20
2023-01-25T08:14:02.033Z,8.10
2023-01-25T08:16:50.645Z,8.10
2023-01-25T08:19:39.227Z,8.30
2023-01-25T08:22:29.428Z,8.30
2023-01-25T08:25:18.152Z,8.30
2023-01-25T08:28:07.958Z,8.30
2023-01-25T08:30:57.715Z,8.20
2023-01-25T08:33:46.936Z,8.00
2023-01-25T08:36:35.570Z,8.20
2023-01-25T08:39:25.536Z,8.30
2023-01-25T08:42:14.030Z,8.30
2023-01-25T08:45:02.826Z,8.30
2023-01-25T08:47:51.250Z,8.40
2023-01-25T08:50:39.831Z,8.50
2023-01-25T08:53:28.857Z,8.60
2023-01-25T08:56:19.300Z,8.50
2023-01-25T08:59:07.956Z,8.60
2023-01-25T09:01:56.416Z,8.70
2023-01-25T09:07:37.883Z,8.30
2023-01-25T09:10:26.561Z,8.60
2023-01-25T09:13:16.423Z,9.00
2023-01-25T09:16:06.681Z,9.20
2023-01-25T09:18:55.555Z,9.40
2023-01-25T09:21:44.137Z,9.50
2023-01-25T09:24:37.002Z,9.50
2023-01-25T09:27:25.734Z,9.30
2023-01-25T09:30:23.477Z,9.40
2023-01-25T09:33:16.894Z,9.60
2023-01-25T09:36:06.611Z,9.90
2023-01-25T09:38:56.492Z,10.20
2023-01-25T09:42:15.387Z,10.50
2023-01-25T09:45:15.451Z,10.70
2023-01-25T09:48:20.617Z,10.70
2023-01-25T09:51:23.297Z,10.80
2023-01-25T09:54:13.281Z,10.70
2023-01-25T09:57:01.937Z,10.50
2023-01-25T09:59:52.956Z,10.50
2023-01-25T10:02:47.457Z,10.40
2023-01-25T10:05:43.841Z,10.40
2023-01-25T10:08:37.382Z,10.60
2023-01-25T10:11:28.173Z,10.70
2023-01-25T10:20:16.450Z,11.20
2023-01-25T10:23:36.772Z,11.10
2023-01-25T10:26:29.225Z,11.00
2023-01-25T10:29:20.937Z,10.80
2023-01-25T10:32:18.701Z,10.80
2023-01-25T10:35:25.812Z,10.90
2023-01-25T10:38:31.276Z,11.20
2023-01-25T10:41:24.973Z,11.20
2023-01-25T13:10:40.531Z,13.60
2023-01-25T13:19:23.600Z,12.50
2023-01-25T13:22:13.341Z,12.30
2023-01-25T13:31:04.219Z,11.60
2023-01-25T13:33:54.291Z,11.60
2023-01-25T13:36:47.456Z,11.50
2023-01-25T13:39:46.392Z,11.50
2023-01-25T13:42:36.349Z,11.40
2023-01-25T13:45:24.874Z,11.50
2023-01-25T13:51:11.488Z,12.50
2023-01-25T13:54:01.447Z,12.60
2023-01-25T13:56:49.968Z,12.70
2023-01-25T13:59:38.615Z,12.90
2023-01-25T14:02:28.154Z,13.00
2023-01-25T14:05:20.996Z,13.00
2023-01-25T14:08:12.254Z,12.70
2023-01-25T14:11:01.161Z,12.60
2023-01-25T14:14:00.551Z,12.50
2023-01-25T14:17:03.574Z,12.30
2023-01-25T14:19:55.613Z,12.10
2023-01-25T14:37:13.768Z,11.50
2023-01-25T14:40:12.831Z,11.50
2023-01-25T14:43:03.297Z,11.50
2023-01-25T14:45:51.829Z,11.50
2023-01-25T14:48:43.043Z,11.50
2023-01-25T14:51:32.069Z,11.40
2023-01-25T14:54:22.507Z,11.30
2023-01-25T17:17:06.992Z,9.80
2023-01-25T17:19:55.510Z,9.80
2023-01-25T17:22:49.573Z,9.90
2023-01-25T17:25:40.749Z,9.80
2023-01-25T17:28:29.270Z,9.80
2023-01-25T17:31:19.503Z,9.70
2023-01-25T17:34:13.242Z,9.70
2023-01-25T17:37:01.832Z,9.70
2023-01-25T17:45:27.970Z,9.60
2023-01-25T19:10:14.816Z,8.60
2023-01-25T19:13:03.414Z,8.60
2023-01-25T19:16:01.077Z,8.70
2023-01-25T19:18:52.022Z,8.60
2023-01-25T19:21:40.826Z,8.60
2023-01-25T19:24:29.540Z,8.70
2023-01-25T19:27:18.027Z,8.60
2023-01-25T19:30:07.598Z,8.50
2023-01-25T19:32:57.583Z,8.20
2023-01-25T19:35:46.331Z,8.40
2023-01-25T19:38:38.871Z,8.40
2023-01-25T19:41:29.414Z,8.40
2023-01-25T19:44:17.877Z,8.30
2023-01-25T19:47:06.393Z,8.30
2023-01-25T19:49:57.035Z,8.30
2023-01-25T19:52:45.538Z,8.40
2023-01-25T19:55:34.657Z,8.10
2023-01-25T19:58:27.626Z,8.20
2023-01-25T20:01:18.586Z,7.90
2023-01-25T20:04:08.036Z,7.90
2023-01-25T20:06:58.027Z,8.00
2023-01-25T20:09:46.499Z,8.10
2023-01-25T20:12:35.102Z,8.30
2023-01-25T20:15:23.547Z,8.20
2023-01-25T20:18:12.074Z,8.00
2023-01-25T20:21:01.850Z,8.10
2023-01-25T20:23:55.170Z,8.20
2023-01-25T20:26:43.882Z,8.20
2023-01-25T20:29:32.546Z,8.10
2023-01-25T20:32:32.498Z,7.70
2023-01-25T20:35:21.755Z,7.40
2023-01-25T20:38:10.297Z,7.50
2023-01-25T20:41:04.658Z,7.60
2023-01-25T20:43:54.836Z,7.70
2023-01-25T20:46:44.132Z,7.60
2023-01-25T20:49:33.450Z,7.40
2023-01-25T20:52:21.973Z,7.50
2023-01-25T20:55:11.257Z,7.40
2023-01-25T20:58:01.424Z,7.30
2023-01-25T21:00:50.109Z,7.20
2023-01-25T21:03:38.617Z,7.20
2023-01-25T21:06:28.552Z,6.80
2023-01-25T21:09:32.138Z,6.80
2023-01-25T21:12:20.593Z,6.80
2023-01-25T21:15:12.688Z,7.00
2023-01-25T21:18:01.180Z,7.00
2023-01-25T21:20:49.842Z,7.20
2023-01-25T21:23:40.186Z,7.30
2023-01-25T21:26:30.217Z,7.30
2023-01-25T21:29:20.438Z,7.40
2023-01-25T21:32:10.321Z,7.40
2023-01-25T21:34:58.823Z,7.50
2023-01-25T23:48:41.534Z,7.00
2023-01-25T23:51:31.489Z,6.80
2023-01-25T23:54:20.121Z,6.80
2023-01-25T23:57:08.644Z,6.80
2023-01-25T23:59:57.112Z,6.50
